sensor_id;sensor_type;location;lat;lon;timestamp;P1;durP1;ratioP1;P2;durP2;ratioP2
3712;SDS011;1872;51.406;6.856;2022-12-07T00:00:41;22.27;;;16.23;;
3712;SDS011;1872;51.406;6.856;2022-12-07T00:03:07;24.50;;;16.70;;
3712;SDS011;1872;51.406;6.856;2022-12-07T00:05:32;26.70;;;18.40;;
3712;SDS011;1872;51.406;6.856;2022-12-07T00:07:58;21.70;;;16.63;;
3712;SDS011;1872;51.406;6.856;2022-12-07T00:10:24;22.67;;;18.23;;
3712;SDS011;1872;51.406;6.856;2022-12-07T00:12:49;26.43;;;17.07;;
3712;SDS011;1872;51.406;6.856;2022-12-07T00:15:15;22.70;;;17.50;;
3712;SDS011;1872;51.406;6.856;2022-12-07T00:17:41;26.20;;;18.40;;
3712;SDS011;1872;51.406;6.856;2022-12-07T00:20:06;23.57;;;18.30;;
3712;SDS011;1872;51.406;6.856;2022-12-07T00:22:32;24.60;;;18.13;;
3712;SDS011;1872;51.406;6.856;2022-12-07T00:24:58;27.90;;;17.97;;
3712;SDS011;1872;51.406;6.856;2022-12-07T00:27:23;23.97;;;18.57;;
3712;SDS011;1872;51.406;6.856;2022-12-07T00:29:49;27.50;;;18.63;;
3712;SDS011;1872;51.406;6.856;2022-12-07T00:32:14;24.57;;;17.63;;
3712;SDS011;1872;51.406;6.856;2022-12-07T00:34:40;22.30;;;18.10;;
3712;SDS011;1872;51.406;6.856;2022-12-07T00:37:06;27.70;;;17.40;;
3712;SDS011;1872;51.406;6.856;2022-12-07T00:39:31;24.03;;;18.10;;
3712;SDS011;1872;51.406;6.856;2022-12-07T00:41:57;29.27;;;18.10;;
3712;SDS011;1872;51.406;6.856;2022-12-07T00:44:22;21.70;;;17.60;;
3712;SDS011;1872;51.406;6.856;2022-12-07T00:46:48;30.47;;;18.80;;
3712;SDS011;1872;51.406;6.856;2022-12-07T00:49:13;25.93;;;19.50;;
3712;SDS011;1872;51.406;6.856;2022-12-07T00:51:39;26.03;;;19.10;;
3712;SDS011;1872;51.406;6.856;2022-12-07T00:54:05;22.70;;;17.80;;
3712;SDS011;1872;51.406;6.856;2022-12-07T00:56:30;25.97;;;19.10;;
3712;SDS011;1872;51.406;6.856;2022-12-07T00:58:57;25.70;;;18.60;;
3712;SDS011;1872;51.406;6.856;2022-12-07T01:01:28;28.53;;;19.77;;
3712;SDS011;1872;51.406;6.856;2022-12-07T01:03:56;25.30;;;18.53;;
3712;SDS011;1872;51.406;6.856;2022-12-07T01:06:22;28.53;;;18.53;;
3712;SDS011;1872;51.406;6.856;2022-12-07T01:08:49;23.83;;;17.50;;
3712;SDS011;1872;51.406;6.856;2022-12-07T01:11:16;23.97;;;17.83;;
3712;SDS011;1872;51.406;6.856;2022-12-07T01:13:44;24.53;;;18.50;;
3712;SDS011;1872;51.406;6.856;2022-12-07T01:16:12;25.10;;;18.50;;
3712;SDS011;1872;51.406;6.856;2022-12-07T01:18:39;24.07;;;17.27;;
3712;SDS011;1872;51.406;6.856;2022-12-07T01:23:31;22.60;;;17.60;;
3712;SDS011;1872;51.406;6.856;2022-12-07T01:25:58;24.97;;;17.87;;
3712;SDS011;1872;51.406;6.856;2022-12-07T01:28:25;27.73;;;19.97;;
3712;SDS011;1872;51.406;6.856;2022-12-07T01:30:56;25.50;;;18.17;;
3712;SDS011;1872;51.406;6.856;2022-12-07T01:33:29;24.77;;;19.00;;
3712;SDS011;1872;51.406;6.856;2022-12-07T01:36:04;22.10;;;16.90;;
3712;SDS011;1872;51.406;6.856;2022-12-07T01:38:50;24.47;;;18.93;;
3712;SDS011;1872;51.406;6.856;2022-12-07T01:41:21;30.23;;;18.70;;
3712;SDS011;1872;51.406;6.856;2022-12-07T01:46:37;25.47;;;18.80;;
3712;SDS011;1872;51.406;6.856;2022-12-07T01:49:04;23.13;;;18.90;;
3712;SDS011;1872;51.406;6.856;2022-12-07T01:51:32;20.50;;;16.60;;
3712;SDS011;1872;51.406;6.856;2022-12-07T01:53:58;30.00;;;19.70;;
3712;SDS011;1872;51.406;6.856;2022-12-07T01:56:25;27.10;;;18.63;;
3712;SDS011;1872;51.406;6.856;2022-12-07T01:58:53;23.80;;;17.83;;
3712;SDS011;1872;51.406;6.856;2022-12-07T02:01:21;28.50;;;19.33;;
3712;SDS011;1872;51.406;6.856;2022-12-07T02:03:47;23.20;;;18.17;;
3712;SDS011;1872;51.406;6.856;2022-12-07T02:06:15;27.70;;;18.10;;
3712;SDS011;1872;51.406;6.856;2022-12-07T02:08:44;22.80;;;16.97;;
3712;SDS011;1872;51.406;6.856;2022-12-07T02:11:10;21.50;;;16.97;;
3712;SDS011;1872;51.406;6.856;2022-12-07T02:13:37;24.60;;;17.37;;
3712;SDS011;1872;51.406;6.856;2022-12-07T02:30:13;23.57;;;16.80;;
3712;SDS011;1872;51.406;6.856;2022-12-07T02:38:19;25.00;;;17.63;;
3712;SDS011;1872;51.406;6.856;2022-12-07T02:43:39;28.70;;;17.87;;
3712;SDS011;1872;51.406;6.856;2022-12-07T02:46:09;24.17;;;17.77;;
3712;SDS011;1872;51.406;6.856;2022-12-07T02:48:39;27.37;;;18.70;;
3712;SDS011;1872;51.406;6.856;2022-12-07T02:51:07;21.73;;;16.23;;
3712;SDS011;1872;51.406;6.856;2022-12-07T02:53:37;23.07;;;16.47;;
3712;SDS011;1872;51.406;6.856;2022-12-07T02:56:20;28.03;;;18.30;;
3712;SDS011;1872;51.406;6.856;2022-12-07T02:59:29;24.77;;;17.60;;
3712;SDS011;1872;51.406;6.856;2022-12-07T03:10:19;26.10;;;18.10;;
3712;SDS011;1872;51.406;6.856;2022-12-07T03:13:12;25.50;;;17.13;;
3712;SDS011;1872;51.406;6.856;2022-12-07T03:18:38;25.57;;;16.70;;
3712;SDS011;1872;51.406;6.856;2022-12-07T03:21:09;30.13;;;18.63;;
3712;SDS011;1872;51.406;6.856;2022-12-07T03:23:39;29.23;;;19.23;;
3712;SDS011;1872;51.406;6.856;2022-12-07T03:26:06;26.23;;;18.13;;
3712;SDS011;1872;51.406;6.856;2022-12-07T03:28:37;23.67;;;17.60;;
3712;SDS011;1872;51.406;6.856;2022-12-07T03:31:19;19.70;;;15.70;;
3712;SDS011;1872;51.406;6.856;2022-12-07T03:37:02;27.50;;;16.90;;
3712;SDS011;1872;51.406;6.856;2022-12-07T03:39:33;26.50;;;17.30;;
3712;SDS011;1872;51.406;6.856;2022-12-07T03:42:22;25.50;;;16.73;;
3712;SDS011;1872;51.406;6.856;2022-12-07T03:44:48;25.13;;;16.40;;
3712;SDS011;1872;51.406;6.856;2022-12-07T03:49:53;27.27;;;18.17;;
3712;SDS011;1872;51.406;6.856;2022-12-07T03:54:57;24.20;;;17.00;;
3712;SDS011;1872;51.406;6.856;2022-12-07T03:57:43;25.17;;;17.30;;
3712;SDS011;1872;51.406;6.856;2022-12-07T04:00:12;24.67;;;18.10;;
3712;SDS011;1872;51.406;6.856;2022-12-07T04:02:39;23.30;;;17.23;;
3712;SDS011;1872;51.406;6.856;2022-12-07T04:05:06;24.40;;;16.77;;
3712;SDS011;1872;51.406;6.856;2022-12-07T04:07:33;25.40;;;16.60;;
3712;SDS011;1872;51.406;6.856;2022-12-07T04:09:58;23.37;;;16.13;;
3712;SDS011;1872;51.406;6.856;2022-12-07T04:12:24;22.00;;;16.90;;
3712;SDS011;1872;51.406;6.856;2022-12-07T04:14:50;24.83;;;16.67;;
3712;SDS011;1872;51.406;6.856;2022-12-07T04:17:15;25.10;;;17.17;;
3712;SDS011;1872;51.406;6.856;2022-12-07T04:19:41;24.30;;;16.70;;
3712;SDS011;1872;51.406;6.856;2022-12-07T04:22:07;25.03;;;16.40;;
3712;SDS011;1872;51.406;6.856;2022-12-07T04:24:33;25.53;;;17.17;;
3712;SDS011;1872;51.406;6.856;2022-12-07T04:26:59;22.63;;;16.50;;
3712;SDS011;1872;51.406;6.856;2022-12-07T04:29:25;22.10;;;15.77;;
3712;SDS011;1872;51.406;6.856;2022-12-07T04:31:51;24.87;;;15.80;;
3712;SDS011;1872;51.406;6.856;2022-12-07T04:34:18;23.20;;;16.83;;
3712;SDS011;1872;51.406;6.856;2022-12-07T04:36:44;24.60;;;16.93;;
3712;SDS011;1872;51.406;6.856;2022-12-07T04:39:19;26.77;;;16.70;;
3712;SDS011;1872;51.406;6.856;2022-12-07T04:41:49;23.73;;;16.30;;
3712;SDS011;1872;51.406;6.856;2022-12-07T04:44:15;24.60;;;16.60;;
3712;SDS011;1872;51.406;6.856;2022-12-07T04:46:42;21.97;;;16.07;;
3712;SDS011;1872;51.406;6.856;2022-12-07T04:49:08;23.47;;;16.90;;
3712;SDS011;1872;51.406;6.856;2022-12-07T04:51:34;20.30;;;16.13;;
3712;SDS011;1872;51.406;6.856;2022-12-07T04:54:00;23.00;;;16.00;;
3712;SDS011;1872;51.406;6.856;2022-12-07T04:56:26;25.93;;;17.23;;
3712;SDS011;1872;51.406;6.856;2022-12-07T04:58:52;24.97;;;16.17;;
3712;SDS011;1872;51.406;6.856;2022-12-07T05:01:18;23.80;;;16.10;;
3712;SDS011;1872;51.406;6.856;2022-12-07T05:03:44;20.10;;;14.67;;
3712;SDS011;1872;51.406;6.856;2022-12-07T05:06:10;25.30;;;17.27;;
3712;SDS011;1872;51.406;6.856;2022-12-07T05:08:37;24.80;;;16.50;;
3712;SDS011;1872;51.406;6.856;2022-12-07T05:11:02;25.13;;;17.07;;
3712;SDS011;1872;51.406;6.856;2022-12-07T05:13:30;25.00;;;16.30;;
3712;SDS011;1872;51.406;6.856;2022-12-07T05:15:56;23.50;;;16.77;;
3712;SDS011;1872;51.406;6.856;2022-12-07T05:18:22;24.27;;;16.17;;
3712;SDS011;1872;51.406;6.856;2022-12-07T05:20:48;23.93;;;15.70;;
3712;SDS011;1872;51.406;6.856;2022-12-07T05:23:14;21.87;;;15.37;;
3712;SDS011;1872;51.406;6.856;2022-12-07T05:25:40;23.77;;;16.07;;
3712;SDS011;1872;51.406;6.856;2022-12-07T05:28:05;25.50;;;17.13;;
3712;SDS011;1872;51.406;6.856;2022-12-07T05:30:31;25.60;;;16.83;;
3712;SDS011;1872;51.406;6.856;2022-12-07T05:32:57;21.67;;;15.27;;
3712;SDS011;1872;51.406;6.856;2022-12-07T05:35:23;22.57;;;14.47;;
3712;SDS011;1872;51.406;6.856;2022-12-07T05:37:49;24.73;;;15.30;;
3712;SDS011;1872;51.406;6.856;2022-12-07T05:40:15;21.80;;;15.90;;
3712;SDS011;1872;51.406;6.856;2022-12-07T05:42:41;19.70;;;15.30;;
3712;SDS011;1872;51.406;6.856;2022-12-07T05:45:08;21.80;;;13.97;;
3712;SDS011;1872;51.406;6.856;2022-12-07T05:47:35;20.37;;;13.30;;
3712;SDS011;1872;51.406;6.856;2022-12-07T05:50:02;19.70;;;14.70;;
3712;SDS011;1872;51.406;6.856;2022-12-07T05:52:28;23.77;;;14.40;;
3712;SDS011;1872;51.406;6.856;2022-12-07T05:54:53;22.67;;;13.10;;
3712;SDS011;1872;51.406;6.856;2022-12-07T05:57:19;20.53;;;14.63;;
3712;SDS011;1872;51.406;6.856;2022-12-07T05:59:45;20.87;;;14.13;;
3712;SDS011;1872;51.406;6.856;2022-12-07T06:02:11;19.47;;;14.93;;
3712;SDS011;1872;51.406;6.856;2022-12-07T06:04:39;17.27;;;13.23;;
3712;SDS011;1872;51.406;6.856;2022-12-07T06:07:10;17.77;;;12.57;;
3712;SDS011;1872;51.406;6.856;2022-12-07T06:09:37;21.80;;;13.67;;
3712;SDS011;1872;51.406;6.856;2022-12-07T06:12:05;19.30;;;14.30;;
3712;SDS011;1872;51.406;6.856;2022-12-07T06:14:49;20.87;;;13.30;;
3712;SDS011;1872;51.406;6.856;2022-12-07T06:17:16;18.40;;;13.33;;
3712;SDS011;1872;51.406;6.856;2022-12-07T06:19:41;21.40;;;14.30;;
3712;SDS011;1872;51.406;6.856;2022-12-07T06:22:08;18.40;;;13.47;;
3712;SDS011;1872;51.406;6.856;2022-12-07T06:24:35;20.40;;;13.90;;
3712;SDS011;1872;51.406;6.856;2022-12-07T06:27:00;19.50;;;13.70;;
3712;SDS011;1872;51.406;6.856;2022-12-07T06:29:26;20.47;;;13.23;;
3712;SDS011;1872;51.406;6.856;2022-12-07T06:31:52;17.37;;;13.67;;
3712;SDS011;1872;51.406;6.856;2022-12-07T06:34:19;15.10;;;11.63;;
3712;SDS011;1872;51.406;6.856;2022-12-07T06:36:48;18.33;;;13.03;;
3712;SDS011;1872;51.406;6.856;2022-12-07T06:39:17;21.27;;;13.47;;
3712;SDS011;1872;51.406;6.856;2022-12-07T06:41:43;18.07;;;13.10;;
3712;SDS011;1872;51.406;6.856;2022-12-07T06:44:09;21.50;;;14.80;;
3712;SDS011;1872;51.406;6.856;2022-12-07T06:46:34;19.53;;;13.27;;
3712;SDS011;1872;51.406;6.856;2022-12-07T06:49:00;17.60;;;12.97;;
3712;SDS011;1872;51.406;6.856;2022-12-07T06:51:26;17.43;;;12.27;;
3712;SDS011;1872;51.406;6.856;2022-12-07T06:53:52;17.27;;;13.30;;
3712;SDS011;1872;51.406;6.856;2022-12-07T06:56:17;20.23;;;12.13;;
3712;SDS011;1872;51.406;6.856;2022-12-07T06:58:43;18.83;;;12.80;;
3712;SDS011;1872;51.406;6.856;2022-12-07T07:01:13;18.10;;;13.00;;
3712;SDS011;1872;51.406;6.856;2022-12-07T07:03:39;20.47;;;14.80;;
3712;SDS011;1872;51.406;6.856;2022-12-07T07:06:06;21.07;;;14.40;;
3712;SDS011;1872;51.406;6.856;2022-12-07T07:08:35;20.20;;;14.07;;
3712;SDS011;1872;51.406;6.856;2022-12-07T07:11:01;17.57;;;12.07;;
3712;SDS011;1872;51.406;6.856;2022-12-07T07:13:27;20.53;;;13.33;;
3712;SDS011;1872;51.406;6.856;2022-12-07T07:15:53;16.33;;;12.90;;
3712;SDS011;1872;51.406;6.856;2022-12-07T07:18:19;22.07;;;14.30;;
3712;SDS011;1872;51.406;6.856;2022-12-07T07:20:46;21.43;;;13.43;;
3712;SDS011;1872;51.406;6.856;2022-12-07T07:23:11;22.23;;;14.13;;
3712;SDS011;1872;51.406;6.856;2022-12-07T07:25:37;21.63;;;13.97;;
3712;SDS011;1872;51.406;6.856;2022-12-07T07:28:04;19.73;;;14.13;;
3712;SDS011;1872;51.406;6.856;2022-12-07T07:30:30;20.73;;;14.57;;
3712;SDS011;1872;51.406;6.856;2022-12-07T07:33:00;21.00;;;14.73;;
3712;SDS011;1872;51.406;6.856;2022-12-07T07:35:27;24.47;;;15.30;;
3712;SDS011;1872;51.406;6.856;2022-12-07T07:37:54;25.30;;;15.50;;
3712;SDS011;1872;51.406;6.856;2022-12-07T07:40:20;20.50;;;15.23;;
3712;SDS011;1872;51.406;6.856;2022-12-07T07:42:47;24.50;;;14.50;;
3712;SDS011;1872;51.406;6.856;2022-12-07T07:45:14;20.07;;;14.00;;
3712;SDS011;1872;51.406;6.856;2022-12-07T07:47:40;18.10;;;13.17;;
3712;SDS011;1872;51.406;6.856;2022-12-07T07:50:06;18.57;;;13.67;;
3712;SDS011;1872;51.406;6.856;2022-12-07T07:52:32;19.40;;;13.60;;
3712;SDS011;1872;51.406;6.856;2022-12-07T07:54:57;17.50;;;13.90;;
3712;SDS011;1872;51.406;6.856;2022-12-07T07:57:23;21.47;;;13.60;;
3712;SDS011;1872;51.406;6.856;2022-12-07T07:59:48;16.33;;;13.10;;
3712;SDS011;1872;51.406;6.856;2022-12-07T08:02:16;18.73;;;13.40;;
3712;SDS011;1872;51.406;6.856;2022-12-07T08:04:43;23.87;;;13.57;;
3712;SDS011;1872;51.406;6.856;2022-12-07T08:07:09;19.40;;;13.53;;
3712;SDS011;1872;51.406;6.856;2022-12-07T08:09:36;18.40;;;13.00;;
3712;SDS011;1872;51.406;6.856;2022-12-07T08:12:01;17.63;;;13.40;;
3712;SDS011;1872;51.406;6.856;2022-12-07T08:14:27;17.03;;;12.60;;
3712;SDS011;1872;51.406;6.856;2022-12-07T08:16:53;17.30;;;13.17;;
3712;SDS011;1872;51.406;6.856;2022-12-07T08:19:19;16.93;;;12.47;;
3712;SDS011;1872;51.406;6.856;2022-12-07T08:21:45;17.20;;;13.00;;
3712;SDS011;1872;51.406;6.856;2022-12-07T08:24:11;19.27;;;12.67;;
3712;SDS011;1872;51.406;6.856;2022-12-07T08:26:37;16.60;;;11.60;;
3712;SDS011;1872;51.406;6.856;2022-12-07T08:29:03;21.50;;;13.93;;
3712;SDS011;1872;51.406;6.856;2022-12-07T08:31:29;14.33;;;11.80;;
3712;SDS011;1872;51.406;6.856;2022-12-07T08:33:55;15.60;;;12.80;;
3712;SDS011;1872;51.406;6.856;2022-12-07T08:36:21;17.03;;;11.73;;
3712;SDS011;1872;51.406;6.856;2022-12-07T08:38:48;17.80;;;12.13;;
3712;SDS011;1872;51.406;6.856;2022-12-07T08:41:14;14.93;;;11.70;;
3712;SDS011;1872;51.406;6.856;2022-12-07T08:43:40;20.40;;;11.30;;
3712;SDS011;1872;51.406;6.856;2022-12-07T08:48:49;17.77;;;12.73;;
3712;SDS011;1872;51.406;6.856;2022-12-07T08:51:19;20.17;;;12.40;;
3712;SDS011;1872;51.406;6.856;2022-12-07T08:53:46;14.70;;;11.80;;
3712;SDS011;1872;51.406;6.856;2022-12-07T08:56:13;15.63;;;11.37;;
3712;SDS011;1872;51.406;6.856;2022-12-07T08:58:39;13.50;;;11.70;;
3712;SDS011;1872;51.406;6.856;2022-12-07T09:01:06;16.93;;;11.13;;
3712;SDS011;1872;51.406;6.856;2022-12-07T09:03:32;14.53;;;11.57;;
3712;SDS011;1872;51.406;6.856;2022-12-07T09:05:58;15.00;;;11.30;;
3712;SDS011;1872;51.406;6.856;2022-12-07T09:08:26;17.57;;;11.57;;
3712;SDS011;1872;51.406;6.856;2022-12-07T09:10:58;15.30;;;9.80;;
3712;SDS011;1872;51.406;6.856;2022-12-07T09:13:23;15.40;;;11.00;;
3712;SDS011;1872;51.406;6.856;2022-12-07T09:15:49;14.87;;;10.10;;
3712;SDS011;1872;51.406;6.856;2022-12-07T09:18:15;13.57;;;10.10;;
3712;SDS011;1872;51.406;6.856;2022-12-07T09:20:40;16.37;;;9.93;;
3712;SDS011;1872;51.406;6.856;2022-12-07T09:23:06;14.07;;;9.90;;
3712;SDS011;1872;51.406;6.856;2022-12-07T09:25:32;10.07;;;8.90;;
3712;SDS011;1872;51.406;6.856;2022-12-07T09:27:58;12.60;;;8.90;;
3712;SDS011;1872;51.406;6.856;2022-12-07T09:30:25;12.30;;;9.67;;
3712;SDS011;1872;51.406;6.856;2022-12-07T09:32:57;14.33;;;9.60;;
3712;SDS011;1872;51.406;6.856;2022-12-07T09:35:23;15.50;;;11.30;;
3712;SDS011;1872;51.406;6.856;2022-12-07T09:37:50;17.93;;;9.33;;
3712;SDS011;1872;51.406;6.856;2022-12-07T09:40:16;19.17;;;8.93;;
3712;SDS011;1872;51.406;6.856;2022-12-07T09:42:45;16.17;;;8.93;;
3712;SDS011;1872;51.406;6.856;2022-12-07T09:45:15;16.83;;;9.50;;
3712;SDS011;1872;51.406;6.856;2022-12-07T09:47:44;11.63;;;8.20;;
3712;SDS011;1872;51.406;6.856;2022-12-07T09:50:15;11.33;;;8.00;;
3712;SDS011;1872;51.406;6.856;2022-12-07T09:52:45;11.20;;;8.10;;
3712;SDS011;1872;51.406;6.856;2022-12-07T09:55:13;13.10;;;8.93;;
3712;SDS011;1872;51.406;6.856;2022-12-07T09:57:41;12.07;;;7.93;;
3712;SDS011;1872;51.406;6.856;2022-12-07T10:00:25;8.80;;;7.40;;
3712;SDS011;1872;51.406;6.856;2022-12-07T10:02:55;15.10;;;9.30;;
3712;SDS011;1872;51.406;6.856;2022-12-07T10:05:32;11.20;;;7.83;;
3712;SDS011;1872;51.406;6.856;2022-12-07T10:08:05;9.73;;;8.00;;
3712;SDS011;1872;51.406;6.856;2022-12-07T10:10:34;9.07;;;6.80;;
3712;SDS011;1872;51.406;6.856;2022-12-07T10:13:05;10.37;;;7.43;;
3712;SDS011;1872;51.406;6.856;2022-12-07T10:18:19;17.07;;;9.37;;
3712;SDS011;1872;51.406;6.856;2022-12-07T10:21:14;10.63;;;7.73;;
3712;SDS011;1872;51.406;6.856;2022-12-07T10:24:00;8.53;;;6.03;;
3712;SDS011;1872;51.406;6.856;2022-12-07T10:28:58;11.20;;;7.33;;
3712;SDS011;1872;51.406;6.856;2022-12-07T10:31:44;10.90;;;7.13;;
3712;SDS011;1872;51.406;6.856;2022-12-07T10:36:54;11.30;;;7.10;;
3712;SDS011;1872;51.406;6.856;2022-12-07T10:39:55;13.17;;;6.13;;
3712;SDS011;1872;51.406;6.856;2022-12-07T10:42:23;7.60;;;6.43;;
3712;SDS011;1872;51.406;6.856;2022-12-07T11:01:26;8.83;;;7.93;;
3712;SDS011;1872;51.406;6.856;2022-12-07T11:06:41;13.07;;;8.63;;
3712;SDS011;1872;51.406;6.856;2022-12-07T11:11:57;11.30;;;7.17;;
3712;SDS011;1872;51.406;6.856;2022-12-07T11:14:44;12.90;;;7.03;;
3712;SDS011;1872;51.406;6.856;2022-12-07T11:23:46;8.23;;;6.10;;
3712;SDS011;1872;51.406;6.856;2022-12-07T11:37:39;7.80;;;5.43;;
3712;SDS011;1872;51.406;6.856;2022-12-07T11:45:26;8.50;;;5.50;;
3712;SDS011;1872;51.406;6.856;2022-12-07T11:48:02;6.40;;;5.13;;
3712;SDS011;1872;51.406;6.856;2022-12-07T11:53:22;7.10;;;4.80;;
3712;SDS011;1872;51.406;6.856;2022-12-07T11:55:59;13.20;;;5.53;;
3712;SDS011;1872;51.406;6.856;2022-12-07T12:06:40;12.43;;;5.27;;
3712;SDS011;1872;51.406;6.856;2022-12-07T12:14:26;5.10;;;4.70;;
3712;SDS011;1872;51.406;6.856;2022-12-07T12:22:42;6.27;;;4.87;;
3712;SDS011;1872;51.406;6.856;2022-12-07T12:25:25;6.67;;;4.97;;
3712;SDS011;1872;51.406;6.856;2022-12-07T12:27:52;10.60;;;5.53;;
3712;SDS011;1872;51.406;6.856;2022-12-07T12:30:36;5.83;;;5.23;;
3712;SDS011;1872;51.406;6.856;2022-12-07T12:33:14;10.80;;;5.50;;
3712;SDS011;1872;51.406;6.856;2022-12-07T12:46:49;5.93;;;4.93;;
3712;SDS011;1872;51.406;6.856;2022-12-07T12:51:55;6.80;;;5.03;;
3712;SDS011;1872;51.406;6.856;2022-12-07T12:54:27;5.97;;;4.77;;
3712;SDS011;1872;51.406;6.856;2022-12-07T12:57:09;9.57;;;4.90;;
3712;SDS011;1872;51.406;6.856;2022-12-07T13:10:30;4.27;;;3.90;;
3712;SDS011;1872;51.406;6.856;2022-12-07T13:15:48;3.80;;;3.50;;
3712;SDS011;1872;51.406;6.856;2022-12-07T13:20:56;9.70;;;3.30;;
3712;SDS011;1872;51.406;6.856;2022-12-07T13:23:38;7.57;;;3.73;;
3712;SDS011;1872;51.406;6.856;2022-12-07T13:26:07;5.85;;;4.10;;
3712;SDS011;1872;51.406;6.856;2022-12-07T13:28:39;4.43;;;4.00;;
3712;SDS011;1872;51.406;6.856;2022-12-07T13:33:58;5.07;;;3.90;;
3712;SDS011;1872;51.406;6.856;2022-12-07T13:36:27;5.30;;;4.60;;
3712;SDS011;1872;51.406;6.856;2022-12-07T13:39:16;8.70;;;3.90;;
3712;SDS011;1872;51.406;6.856;2022-12-07T13:41:44;6.00;;;3.87;;
3712;SDS011;1872;51.406;6.856;2022-12-07T13:44:17;5.13;;;4.33;;
3712;SDS011;1872;51.406;6.856;2022-12-07T13:49:44;5.10;;;4.60;;
3712;SDS011;1872;51.406;6.856;2022-12-07T13:54:58;7.20;;;5.07;;
3712;SDS011;1872;51.406;6.856;2022-12-07T13:57:26;5.40;;;4.83;;
3712;SDS011;1872;51.406;6.856;2022-12-07T13:59:56;9.03;;;5.40;;
3712;SDS011;1872;51.406;6.856;2022-12-07T14:02:28;5.60;;;5.00;;
3712;SDS011;1872;51.406;6.856;2022-12-07T14:07:54;10.00;;;5.33;;
3712;SDS011;1872;51.406;6.856;2022-12-07T14:10:25;6.90;;;5.20;;
3712;SDS011;1872;51.406;6.856;2022-12-07T14:12:52;7.30;;;5.37;;
3712;SDS011;1872;51.406;6.856;2022-12-07T14:15:20;6.53;;;5.30;;
3712;SDS011;1872;51.406;6.856;2022-12-07T14:17:51;6.63;;;5.17;;
3712;SDS011;1872;51.406;6.856;2022-12-07T14:20:31;10.03;;;5.70;;
3712;SDS011;1872;51.406;6.856;2022-12-07T14:23:22;7.57;;;4.80;;
3712;SDS011;1872;51.406;6.856;2022-12-07T14:25:51;5.20;;;4.50;;
3712;SDS011;1872;51.406;6.856;2022-12-07T14:28:29;7.80;;;4.50;;
3712;SDS011;1872;51.406;6.856;2022-12-07T14:30:56;5.30;;;4.77;;
3712;SDS011;1872;51.406;6.856;2022-12-07T14:33:23;4.93;;;4.07;;
3712;SDS011;1872;51.406;6.856;2022-12-07T14:35:49;10.27;;;4.17;;
3712;SDS011;1872;51.406;6.856;2022-12-07T14:38:15;7.20;;;4.30;;
3712;SDS011;1872;51.406;6.856;2022-12-07T14:40:43;3.83;;;3.53;;
3712;SDS011;1872;51.406;6.856;2022-12-07T14:43:10;4.70;;;3.93;;
3712;SDS011;1872;51.406;6.856;2022-12-07T14:45:38;5.90;;;3.97;;
3712;SDS011;1872;51.406;6.856;2022-12-07T14:48:04;4.13;;;3.50;;
3712;SDS011;1872;51.406;6.856;2022-12-07T14:50:34;5.70;;;3.93;;
3712;SDS011;1872;51.406;6.856;2022-12-07T14:53:26;4.50;;;3.70;;
3712;SDS011;1872;51.406;6.856;2022-12-07T14:55:55;6.30;;;3.70;;
3712;SDS011;1872;51.406;6.856;2022-12-07T14:58:21;4.40;;;3.70;;
3712;SDS011;1872;51.406;6.856;2022-12-07T15:00:47;5.80;;;3.70;;
3712;SDS011;1872;51.406;6.856;2022-12-07T15:03:13;7.53;;;4.13;;
3712;SDS011;1872;51.406;6.856;2022-12-07T15:05:39;7.00;;;4.00;;
3712;SDS011;1872;51.406;6.856;2022-12-07T15:08:06;5.83;;;3.70;;
3712;SDS011;1872;51.406;6.856;2022-12-07T15:10:33;6.43;;;4.60;;
3712;SDS011;1872;51.406;6.856;2022-12-07T15:13:03;4.80;;;4.30;;
3712;SDS011;1872;51.406;6.856;2022-12-07T15:15:52;4.70;;;4.20;;
3712;SDS011;1872;51.406;6.856;2022-12-07T15:18:18;5.37;;;4.20;;
3712;SDS011;1872;51.406;6.856;2022-12-07T15:20:45;5.17;;;4.00;;
3712;SDS011;1872;51.406;6.856;2022-12-07T15:23:11;7.93;;;3.63;;
3712;SDS011;1872;51.406;6.856;2022-12-07T15:25:40;4.93;;;4.33;;
3712;SDS011;1872;51.406;6.856;2022-12-07T15:28:06;6.30;;;4.77;;
3712;SDS011;1872;51.406;6.856;2022-12-07T15:30:32;6.20;;;4.87;;
3712;SDS011;1872;51.406;6.856;2022-12-07T15:32:58;5.50;;;5.00;;
3712;SDS011;1872;51.406;6.856;2022-12-07T15:35:23;10.20;;;6.87;;
3712;SDS011;1872;51.406;6.856;2022-12-07T15:37:49;10.13;;;8.57;;
3712;SDS011;1872;51.406;6.856;2022-12-07T15:40:15;11.90;;;10.13;;
3712;SDS011;1872;51.406;6.856;2022-12-07T15:42:40;13.70;;;12.17;;
3712;SDS011;1872;51.406;6.856;2022-12-07T15:45:07;17.90;;;12.90;;
3712;SDS011;1872;51.406;6.856;2022-12-07T15:47:37;22.67;;;14.20;;
3712;SDS011;1872;51.406;6.856;2022-12-07T15:50:05;15.40;;;11.40;;
3712;SDS011;1872;51.406;6.856;2022-12-07T15:52:33;11.30;;;8.80;;
3712;SDS011;1872;51.406;6.856;2022-12-07T15:55:00;12.60;;;8.40;;
3712;SDS011;1872;51.406;6.856;2022-12-07T15:57:28;10.67;;;8.13;;
3712;SDS011;1872;51.406;6.856;2022-12-07T15:59:58;10.32;;;7.93;;
3712;SDS011;1872;51.406;6.856;2022-12-07T16:02:24;9.20;;;6.57;;
3712;SDS011;1872;51.406;6.856;2022-12-07T16:04:50;6.70;;;6.00;;
3712;SDS011;1872;51.406;6.856;2022-12-07T16:07:17;13.37;;;6.23;;
3712;SDS011;1872;51.406;6.856;2022-12-07T16:09:43;7.87;;;6.00;;
3712;SDS011;1872;51.406;6.856;2022-12-07T16:12:09;6.80;;;5.90;;
3712;SDS011;1872;51.406;6.856;2022-12-07T16:14:35;6.33;;;5.80;;
3712;SDS011;1872;51.406;6.856;2022-12-07T16:17:02;10.18;;;8.05;;
3712;SDS011;1872;51.406;6.856;2022-12-07T16:19:29;9.07;;;6.30;;
3712;SDS011;1872;51.406;6.856;2022-12-07T16:21:55;11.70;;;6.67;;
3712;SDS011;1872;51.406;6.856;2022-12-07T16:24:21;7.10;;;5.17;;
3712;SDS011;1872;51.406;6.856;2022-12-07T16:26:47;7.80;;;6.20;;
3712;SDS011;1872;51.406;6.856;2022-12-07T16:29:15;11.33;;;6.50;;
3712;SDS011;1872;51.406;6.856;2022-12-07T16:31:41;8.37;;;7.30;;
3712;SDS011;1872;51.406;6.856;2022-12-07T16:34:06;6.23;;;5.43;;
3712;SDS011;1872;51.406;6.856;2022-12-07T16:36:32;8.30;;;6.13;;
3712;SDS011;1872;51.406;6.856;2022-12-07T16:38:58;8.60;;;6.30;;
3712;SDS011;1872;51.406;6.856;2022-12-07T16:41:24;7.07;;;6.00;;
3712;SDS011;1872;51.406;6.856;2022-12-07T16:43:50;10.10;;;6.07;;
3712;SDS011;1872;51.406;6.856;2022-12-07T16:46:16;5.43;;;4.93;;
3712;SDS011;1872;51.406;6.856;2022-12-07T16:48:42;5.33;;;4.73;;
3712;SDS011;1872;51.406;6.856;2022-12-07T16:51:09;11.37;;;6.10;;
3712;SDS011;1872;51.406;6.856;2022-12-07T16:53:36;8.90;;;6.00;;
3712;SDS011;1872;51.406;6.856;2022-12-07T16:56:03;6.53;;;5.83;;
3712;SDS011;1872;51.406;6.856;2022-12-07T16:58:34;6.67;;;5.20;;
3712;SDS011;1872;51.406;6.856;2022-12-07T17:01:08;8.90;;;5.07;;
3712;SDS011;1872;51.406;6.856;2022-12-07T17:03:54;6.73;;;5.20;;
3712;SDS011;1872;51.406;6.856;2022-12-07T17:06:22;5.90;;;4.30;;
3712;SDS011;1872;51.406;6.856;2022-12-07T17:08:49;12.47;;;6.67;;
3712;SDS011;1872;51.406;6.856;2022-12-07T17:11:17;7.00;;;5.37;;
3712;SDS011;1872;51.406;6.856;2022-12-07T17:13:44;8.93;;;6.00;;
3712;SDS011;1872;51.406;6.856;2022-12-07T17:16:28;9.67;;;6.27;;
3712;SDS011;1872;51.406;6.856;2022-12-07T17:18:55;12.77;;;6.90;;
3712;SDS011;1872;51.406;6.856;2022-12-07T17:21:21;10.60;;;8.77;;
3712;SDS011;1872;51.406;6.856;2022-12-07T17:23:47;13.40;;;9.40;;
3712;SDS011;1872;51.406;6.856;2022-12-07T17:26:14;12.33;;;9.93;;
3712;SDS011;1872;51.406;6.856;2022-12-07T17:28:44;15.00;;;9.80;;
3712;SDS011;1872;51.406;6.856;2022-12-07T17:31:11;12.00;;;9.70;;
3712;SDS011;1872;51.406;6.856;2022-12-07T17:33:38;9.97;;;8.03;;
3712;SDS011;1872;51.406;6.856;2022-12-07T17:36:11;12.93;;;8.43;;
3712;SDS011;1872;51.406;6.856;2022-12-07T17:38:38;9.87;;;8.23;;
3712;SDS011;1872;51.406;6.856;2022-12-07T17:41:11;9.23;;;7.80;;
3712;SDS011;1872;51.406;6.856;2022-12-07T17:43:57;7.97;;;7.10;;
3712;SDS011;1872;51.406;6.856;2022-12-07T17:46:24;9.77;;;7.23;;
3712;SDS011;1872;51.406;6.856;2022-12-07T17:48:50;11.40;;;7.97;;
3712;SDS011;1872;51.406;6.856;2022-12-07T17:51:18;9.23;;;8.13;;
3712;SDS011;1872;51.406;6.856;2022-12-07T17:54:02;9.90;;;7.80;;